Time;durP1;ratioP1;P1;durP2;ratioP2;P2;SDS_P1;SDS_P2;PMS_P1;PMS_P2;Temp;Humidity;BMP_temperature;BMP_pressure;BME280_temperature;BME280_humidity;BME280_pressure;Samples;Min_cycle;Max_cycle;Signal;HPM_P1;HPM_P2
2022/06/21 00:01:08;;;;;;;4.13;3.47;;;15.70;99.90;;;;;;5050568;28;20207;-54
2022/06/21 00:03:36;;;;;;;7.73;3.17;;;15.80;99.90;;;;;;5051695;28;20218;-54
2022/06/21 00:06:03;;;;;;;4.83;2.90;;;15.70;99.90;;;;;;5051640;28;20210;-55
2022/06/21 00:08:34;;;;;;;6.30;3.20;;;15.70;99.90;;;;;;5049757;28;20268;-55
2022/06/21 00:11:02;;;;;;;6.30;3.23;;;15.60;99.90;;;;;;5050952;28;20302;-53
2022/06/21 00:13:34;;;;;;;4.80;2.90;;;15.60;99.90;;;;;;5055195;28;20682;-55
2022/06/21 00:16:09;;;;;;;8.77;3.33;;;15.60;99.90;;;;;;5050646;28;21073;-55
2022/06/21 00:18:38;;;;;;;5.73;3.30;;;15.60;99.90;;;;;;5053805;28;20696;-55
2022/06/21 00:21:12;;;;;;;4.97;3.60;;;15.50;99.90;;;;;;5047983;28;20672;-54
2022/06/21 00:23:39;;;;;;;7.13;3.50;;;15.60;99.90;;;;;;5053334;28;20271;-55
2022/06/21 00:26:12;;;;;;;5.53;3.10;;;15.70;99.90;;;;;;5050676;28;20216;-55
2022/06/21 00:28:40;;;;;;;6.67;2.90;;;15.60;99.90;;;;;;5048081;28;20200;-55
2022/06/21 00:31:23;;;;;;;6.63;3.70;;;15.40;99.90;;;;;;5060012;28;20623;-55
2022/06/21 00:33:51;;;;;;;6.17;3.30;;;15.30;99.90;;;;;;5053443;28;20238;-54
2022/06/21 00:36:34;;;;;;;7.57;2.97;;;15.40;99.90;;;;;;5051094;28;20261;-55
2022/06/21 00:39:02;;;;;;;5.53;3.27;;;15.50;99.90;;;;;;5053486;28;20519;-55
2022/06/21 00:41:52;;;;;;;8.40;3.33;;;15.60;99.90;;;;;;5049217;28;20628;-54
2022/06/21 00:45:01;;;;;;;5.70;3.30;;;15.60;99.90;;;;;;5065277;28;20596;-55
2022/06/21 00:47:42;;;;;;;9.80;3.70;;;15.50;99.90;;;;;;5038939;28;20243;-54
2022/06/21 00:50:26;;;;;;;5.90;3.17;;;15.40;99.90;;;;;;5051449;28;20200;-55
2022/06/21 00:52:59;;;;;;;5.83;3.27;;;15.50;99.90;;;;;;5037253;28;20309;-55
2022/06/21 00:55:35;;;;;;;5.53;4.40;;;15.40;99.90;;;;;;5035496;28;20203;-55
2022/06/21 00:58:04;;;;;;;10.30;4.03;;;15.50;99.90;;;;;;5035518;28;20197;-55
2022/06/21 01:00:36;;;;;;;6.10;3.67;;;15.40;99.90;;;;;;5045429;28;20261;-55
2022/06/21 01:03:13;;;;;;;6.67;3.17;;;15.40;99.90;;;;;;5045541;28;20207;-53
2022/06/21 01:05:43;;;;;;;4.37;3.33;;;15.30;99.90;;;;;;5044215;28;20670;-55
2022/06/21 01:08:15;;;;;;;5.13;3.40;;;15.40;99.90;;;;;;5048370;28;20211;-55
2022/06/21 01:10:47;;;;;;;6.97;3.63;;;15.30;99.90;;;;;;5051915;28;20208;-55
2022/06/21 01:13:19;;;;;;;6.60;3.70;;;15.20;99.90;;;;;;5032733;28;20834;-56
2022/06/21 01:15:49;;;;;;;4.67;3.70;;;15.00;99.90;;;;;;5050413;28;20574;-56
2022/06/21 01:18:19;;;;;;;7.30;3.97;;;14.90;99.90;;;;;;5045509;28;20256;-55
2022/06/21 01:20:50;;;;;;;9.63;4.00;;;14.80;99.90;;;;;;5045315;28;20754;-56
2022/06/21 01:23:45;;;;;;;7.10;5.30;;;14.70;99.90;;;;;;5042005;28;20212;-54
2022/06/21 01:26:50;;;;;;;5.27;3.67;;;14.60;99.90;;;;;;5035356;28;20211;-54
2022/06/21 01:29:26;;;;;;;8.17;4.40;;;14.70;99.90;;;;;;5046968;28;20210;-53
2022/06/21 01:31:58;;;;;;;6.47;3.50;;;14.70;99.90;;;;;;5044551;28;20252;-55
2022/06/21 01:34:27;;;;;;;6.73;4.00;;;14.70;99.90;;;;;;5048514;28;20362;-55
2022/06/21 01:37:10;;;;;;;4.80;3.70;;;14.70;99.90;;;;;;5045256;28;20234;-56
2022/06/21 01:39:47;;;;;;;6.17;3.87;;;14.70;99.90;;;;;;5045363;28;20203;-55
2022/06/21 01:42:27;;;;;;;10.87;4.57;;;14.80;99.90;;;;;;5048587;28;20271;-55
2022/06/21 01:44:59;;;;;;;5.40;3.87;;;14.80;99.90;;;;;;5043398;28;20585;-54
2022/06/21 01:47:33;;;;;;;8.90;4.40;;;14.80;99.90;;;;;;5041468;28;20693;-56
2022/06/21 01:50:04;;;;;;;7.83;4.00;;;14.80;99.90;;;;;;5049954;28;20375;-55
2022/06/21 01:52:34;;;;;;;7.50;3.77;;;14.80;99.90;;;;;;5044024;28;20221;-55
2022/06/21 01:55:26;;;;;;;8.07;4.53;;;14.90;99.90;;;;;;5046625;28;20203;-55
2022/06/21 01:57:58;;;;;;;8.73;4.30;;;14.90;99.90;;;;;;5036687;28;20195;-54
2022/06/21 02:00:31;;;;;;;8.77;4.60;;;14.90;99.90;;;;;;5046536;28;21049;-56
2022/06/21 02:03:06;;;;;;;5.37;4.20;;;14.70;99.90;;;;;;5046417;28;20213;-55
2022/06/21 02:05:39;;;;;;;6.17;4.50;;;14.70;99.90;;;;;;5042970;28;20572;-54
2022/06/21 02:08:14;;;;;;;7.57;4.43;;;14.50;99.90;;;;;;5050237;28;20595;-55
2022/06/21 02:10:46;;;;;;;8.70;4.27;;;14.50;99.90;;;;;;5046040;28;20573;-55
2022/06/21 02:13:30;;;;;;;7.90;4.23;;;14.60;99.90;;;;;;5048988;28;20708;-56
2022/06/21 02:16:05;;;;;;;6.27;4.40;;;14.60;99.90;;;;;;5051896;28;20233;-55
2022/06/21 02:18:36;;;;;;;8.50;4.87;;;14.60;99.90;;;;;;5052828;28;20209;-55
2022/06/21 02:21:17;;;;;;;7.63;4.53;;;14.70;99.90;;;;;;5035528;28;20213;-53
2022/06/21 02:23:51;;;;;;;8.10;4.53;;;14.70;99.90;;;;;;5049338;28;20622;-55
2022/06/21 02:26:19;;;;;;;7.17;4.73;;;14.70;99.90;;;;;;5037113;28;20268;-54
2022/06/21 02:28:46;;;;;;;9.83;4.97;;;14.60;99.90;;;;;;5048208;28;20201;-54
2022/06/21 02:31:13;;;;;;;10.87;4.93;;;14.50;99.90;;;;;;5049467;28;20240;-54
2022/06/21 02:33:47;;;;;;;9.13;4.73;;;14.60;99.90;;;;;;5054010;28;20561;-55
2022/06/21 02:36:20;;;;;;;8.77;4.30;;;14.70;99.90;;;;;;5049345;28;20201;-54
2022/06/21 02:38:56;;;;;;;7.07;4.83;;;14.50;99.90;;;;;;5056647;28;20205;-55
2022/06/21 02:41:40;;;;;;;8.07;5.20;;;14.40;99.90;;;;;;5050198;28;20214;-55
2022/06/21 02:44:16;;;;;;;8.57;5.00;;;14.00;99.90;;;;;;5054434;28;20286;-54
2022/06/21 02:46:48;;;;;;;8.57;4.47;;;14.00;99.90;;;;;;5054205;28;20199;-55
2022/06/21 02:49:28;;;;;;;7.10;4.70;;;14.20;99.90;;;;;;5050825;28;20283;-54
2022/06/21 02:52:01;;;;;;;6.90;5.33;;;14.10;99.90;;;;;;5049572;28;20213;-54
2022/06/21 02:54:45;;;;;;;8.03;4.70;;;14.00;99.90;;;;;;5055199;28;20207;-54
2022/06/21 02:57:20;;;;;;;12.17;4.93;;;14.10;99.90;;;;;;5050351;28;20671;-56
2022/06/21 02:59:48;;;;;;;9.90;4.93;;;14.10;99.90;;;;;;5064685;28;20197;-54
2022/06/21 03:02:28;;;;;;;6.73;4.83;;;14.20;99.90;;;;;;5045781;28;20204;-55
2022/06/21 03:05:07;;;;;;;9.57;5.30;;;14.20;99.90;;;;;;5038167;28;20289;-55
2022/06/21 03:07:42;;;;;;;12.43;5.00;;;14.30;99.90;;;;;;5056537;28;20207;-55
2022/06/21 03:10:20;;;;;;;10.13;4.90;;;14.30;99.90;;;;;;5054094;28;20204;-54
2022/06/21 03:12:51;;;;;;;7.33;5.07;;;14.30;99.90;;;;;;5048806;28;20220;-54
2022/06/21 03:15:19;;;;;;;9.73;4.73;;;14.30;99.90;;;;;;5053017;28;20231;-54
2022/06/21 03:18:02;;;;;;;7.33;4.80;;;14.30;99.90;;;;;;5022074;28;20656;-55
2022/06/21 03:20:31;;;;;;;11.17;5.10;;;14.20;99.90;;;;;;5053514;28;20275;-53
2022/06/21 03:22:58;;;;;;;9.47;5.20;;;14.00;99.90;;;;;;5044288;28;20236;-53
2022/06/21 03:25:48;;;;;;;9.47;4.63;;;14.10;99.90;;;;;;5054129;28;20665;-55
2022/06/21 03:28:29;;;;;;;9.00;5.03;;;14.10;99.90;;;;;;5036799;28;20212;-56
2022/06/21 03:30:59;;;;;;;6.00;4.50;;;14.20;99.90;;;;;;5051161;28;20208;-54
2022/06/21 03:33:27;;;;;;;9.03;5.60;;;14.20;99.90;;;;;;5043999;28;20233;-54
2022/06/21 03:35:55;;;;;;;6.73;4.73;;;14.20;99.90;;;;;;5051077;28;20672;-53
2022/06/21 03:38:23;;;;;;;8.73;5.07;;;14.20;99.90;;;;;;5044814;28;20207;-56
2022/06/21 03:43:48;;;;;;;7.60;5.70;;;14.20;99.90;;;;;;5050856;28;20753;-54
2022/06/21 03:46:24;;;;;;;5.60;4.63;;;14.20;99.90;;;;;;5045056;28;20210;-54
2022/06/21 03:48:59;;;;;;;7.20;4.97;;;14.20;99.90;;;;;;5047923;28;20562;-54
2022/06/21 03:51:35;;;;;;;8.27;5.13;;;14.10;99.90;;;;;;5047858;28;20677;-55
2022/06/21 03:54:22;;;;;;;8.20;5.30;;;14.00;99.90;;;;;;5052244;28;20716;-54
2022/06/21 03:57:02;;;;;;;7.60;5.53;;;13.90;99.90;;;;;;5048425;28;20785;-55
2022/06/21 03:59:48;;;;;;;8.67;5.80;;;14.00;99.90;;;;;;5050520;28;20545;-55
2022/06/21 04:02:30;;;;;;;7.63;5.33;;;13.80;99.90;;;;;;5042947;28;20544;-53
2022/06/21 04:05:05;;;;;;;7.47;5.03;;;13.90;99.90;;;;;;5051525;28;20490;-55
2022/06/21 04:07:45;;;;;;;8.80;5.77;;;13.90;99.90;;;;;;5052340;28;20576;-55
2022/06/21 04:10:23;;;;;;;9.67;5.67;;;13.90;99.90;;;;;;5048532;28;20213;-53
2022/06/21 04:13:02;;;;;;;8.73;6.00;;;13.90;99.90;;;;;;5032317;28;20218;-55
2022/06/21 04:15:52;;;;;;;7.13;4.93;;;13.90;99.90;;;;;;5036092;28;20944;-54
2022/06/21 04:18:51;;;;;;;10.20;5.57;;;14.00;99.90;;;;;;5052794;28;20638;-55
2022/06/21 04:21:31;;;;;;;12.07;5.40;;;14.00;99.90;;;;;;5052566;28;20226;-55
2022/06/21 04:24:12;;;;;;;7.97;4.97;;;14.00;99.90;;;;;;5050525;28;20568;-55
2022/06/21 04:26:50;;;;;;;6.20;5.27;;;14.00;99.90;;;;;;5039409;28;20213;-54
2022/06/21 04:29:55;;;;;;;8.23;5.13;;;14.10;99.90;;;;;;5051840;28;20299;-54
2022/06/21 04:32:47;;;;;;;7.03;5.57;;;14.00;99.90;;;;;;5044055;28;20253;-55
2022/06/21 04:35:27;;;;;;;8.43;5.30;;;14.20;99.90;;;;;;5053805;28;20204;-54
2022/06/21 04:38:02;;;;;;;11.20;5.07;;;14.30;99.90;;;;;;5050902;28;20445;-55
2022/06/21 04:40:53;;;;;;;10.03;6.00;;;14.20;99.90;;;;;;5046223;28;20256;-53
2022/06/21 04:43:20;;;;;;;10.13;5.57;;;14.10;99.90;;;;;;5032082;28;20296;-53
2022/06/21 04:45:52;;;;;;;12.43;5.47;;;14.00;99.90;;;;;;5052662;28;20222;-55
2022/06/21 04:48:54;;;;;;;12.33;5.93;;;14.00;99.90;;;;;;5048891;28;20587;-54
2022/06/21 04:51:24;;;;;;;13.30;5.67;;;14.10;99.90;;;;;;5044112;28;20314;-54
2022/06/21 04:54:04;;;;;;;8.20;6.07;;;14.00;99.90;;;;;;5053828;28;20222;-54
2022/06/21 04:56:56;;;;;;;10.73;6.63;;;14.10;99.90;;;;;;5048051;28;20230;-56
2022/06/21 04:59:34;;;;;;;13.20;6.67;;;14.00;99.90;;;;;;5046493;28;20207;-56
2022/06/21 05:02:03;;;;;;;8.97;6.30;;;14.00;99.90;;;;;;5047981;28;20205;-54
2022/06/21 05:04:37;;;;;;;8.33;6.13;;;14.30;99.90;;;;;;5040250;28;20322;-54
2022/06/21 05:07:11;;;;;;;9.30;6.13;;;14.40;99.90;;;;;;5052746;28;20192;-54
2022/06/21 05:09:41;;;;;;;11.07;6.57;;;14.40;99.90;;;;;;5036077;28;20203;-55
2022/06/21 05:12:17;;;;;;;8.80;6.70;;;14.40;99.90;;;;;;5041962;28;20229;-55
2022/06/21 05:14:51;;;;;;;11.73;6.20;;;14.50;99.90;;;;;;5054374;28;20245;-55
2022/06/21 05:17:20;;;;;;;9.53;6.47;;;14.50;99.90;;;;;;5046978;28;20349;-54
2022/06/21 05:19:52;;;;;;;8.20;5.60;;;14.50;99.90;;;;;;5047277;28;20204;-55
2022/06/21 05:22:37;;;;;;;7.23;5.47;;;14.50;99.90;;;;;;5049694;28;20273;-53
2022/06/21 05:25:15;;;;;;;7.13;5.03;;;14.50;99.90;;;;;;5047933;28;20350;-54
2022/06/21 05:27:56;;;;;;;10.30;5.10;;;14.60;99.90;;;;;;5049934;28;20215;-54
2022/06/21 05:30:23;;;;;;;6.23;4.80;;;14.70;99.90;;;;;;5047241;28;20208;-55
2022/06/21 05:32:54;;;;;;;8.60;5.07;;;14.80;99.90;;;;;;5046088;28;20266;-55
2022/06/21 05:35:26;;;;;;;7.43;4.53;;;14.80;99.90;;;;;;5036314;28;20214;-56
2022/06/21 05:38:00;;;;;;;4.53;4.13;;;15.10;99.90;;;;;;5047715;28;20835;-55
2022/06/21 05:40:39;;;;;;;7.83;4.77;;;15.30;99.90;;;;;;5050826;28;20256;-55
2022/06/21 05:43:34;;;;;;;6.83;4.80;;;15.40;99.90;;;;;;5048724;28;20376;-55
2022/06/21 05:46:12;;;;;;;6.43;4.03;;;15.40;99.90;;;;;;5048081;28;20229;-55
2022/06/21 05:48:40;;;;;;;6.27;4.30;;;15.30;99.90;;;;;;5051639;28;20233;-55
2022/06/21 05:51:15;;;;;;;10.70;4.77;;;15.50;99.90;;;;;;5027402;28;20241;-53
2022/06/21 05:53:53;;;;;;;5.83;4.20;;;15.50;99.90;;;;;;5043618;28;20221;-54
2022/06/21 05:56:23;;;;;;;6.53;4.47;;;15.60;99.90;;;;;;5040526;28;20639;-55
2022/06/21 05:59:06;;;;;;;5.87;4.33;;;15.40;99.90;;;;;;5048302;28;20191;-55
2022/06/21 06:01:46;;;;;;;5.50;3.90;;;15.30;99.90;;;;;;5038656;28;20201;-54
2022/06/21 06:04:44;;;;;;;6.23;4.03;;;15.30;99.90;;;;;;5048586;28;20554;-55
2022/06/21 06:07:28;;;;;;;5.00;3.60;;;15.40;99.90;;;;;;5043178;28;20209;-55
2022/06/21 06:09:58;;;;;;;8.90;4.07;;;15.50;99.90;;;;;;5046993;28;20217;-54
2022/06/21 06:12:52;;;;;;;10.23;3.80;;;15.70;99.90;;;;;;5041971;28;20666;-55
2022/06/21 06:15:24;;;;;;;6.43;3.80;;;15.70;99.90;;;;;;5043150;28;20213;-53
2022/06/21 06:18:04;;;;;;;8.67;4.00;;;15.90;99.90;;;;;;5018898;28;20213;-54
2022/06/21 06:20:52;;;;;;;8.03;3.33;;;16.10;99.90;;;;;;5051096;28;20372;-55
2022/06/21 06:23:25;;;;;;;4.40;3.20;;;16.00;99.90;;;;;;5049590;28;20207;-54
2022/06/21 06:26:00;;;;;;;5.23;3.30;;;15.90;99.90;;;;;;5042421;28;20320;-55
2022/06/21 06:28:40;;;;;;;5.27;2.57;;;16.00;99.90;;;;;;5056649;28;20210;-55
2022/06/21 06:31:13;;;;;;;8.37;3.13;;;16.10;99.90;;;;;;5039843;28;20207;-55
2022/06/21 06:33:45;;;;;;;6.27;3.30;;;16.40;99.90;;;;;;5037869;28;20223;-55
2022/06/21 06:36:25;;;;;;;4.93;3.73;;;16.30;99.90;;;;;;5048232;28;20225;-55
2022/06/21 06:38:53;;;;;;;5.40;3.70;;;16.30;99.90;;;;;;5051175;28;20288;-56
2022/06/21 06:41:33;;;;;;;4.23;2.97;;;16.50;99.90;;;;;;5047546;28;20214;-54
2022/06/21 06:44:05;;;;;;;6.87;3.30;;;16.40;99.90;;;;;;5033040;28;20666;-56
2022/06/21 06:46:42;;;;;;;3.37;2.37;;;16.50;99.90;;;;;;5052783;28;20705;-55
2022/06/21 06:49:50;;;;;;;6.07;2.67;;;16.50;99.90;;;;;;5044951;28;20337;-54
2022/06/21 06:52:55;;;;;;;8.20;2.37;;;16.60;99.90;;;;;;5036269;28;20226;-54
2022/06/21 06:55:35;;;;;;;5.83;2.10;;;16.90;99.90;;;;;;4994390;28;20574;-54
2022/06/21 06:58:46;;;;;;;2.63;2.10;;;17.10;99.90;;;;;;5048795;28;20203;-54
2022/06/21 07:01:57;;;;;;;5.00;2.20;;;17.00;99.90;;;;;;5042955;28;20206;-55
2022/06/21 07:04:32;;;;;;;4.83;2.43;;;16.80;99.90;;;;;;4972586;28;20214;-53
2022/06/21 07:07:04;;;;;;;5.80;2.53;;;16.90;99.90;;;;;;4956112;28;20852;-57
2022/06/21 07:09:36;;;;;;;4.20;2.27;;;17.10;99.90;;;;;;5016317;28;20215;-54
2022/06/21 07:12:06;;;;;;;4.77;2.00;;;17.40;99.90;;;;;;5039973;28;20627;-56
2022/06/21 07:14:35;;;;;;;5.67;2.17;;;17.70;99.90;;;;;;5044599;28;20269;-55
2022/06/21 07:17:21;;;;;;;6.30;2.30;;;17.50;99.90;;;;;;5040070;28;20280;-56
2022/06/21 07:19:49;;;;;;;4.63;2.10;;;17.70;99.90;;;;;;5053627;28;20707;-56
2022/06/21 07:22:20;;;;;;;2.53;1.80;;;18.30;99.90;;;;;;5024654;28;20262;-55
2022/06/21 07:25:12;;;;;;;4.40;1.73;;;18.30;99.90;;;;;;5050657;28;20667;-55
2022/06/21 07:27:42;;;;;;;3.50;1.67;;;18.20;99.90;;;;;;5048998;28;20230;-54
2022/06/21 07:30:12;;;;;;;4.87;1.73;;;17.90;99.90;;;;;;5042317;28;20252;-54
2022/06/21 07:32:56;;;;;;;5.03;2.00;;;18.10;99.90;;;;;;5047634;28;20271;-56
2022/06/21 07:35:32;;;;;;;3.37;1.67;;;18.40;99.90;;;;;;5033838;28;20228;-53
2022/06/21 07:38:18;;;;;;;4.03;2.20;;;18.40;99.90;;;;;;5030116;28;20922;-54
2022/06/21 07:40:52;;;;;;;4.67;1.60;;;18.50;99.90;;;;;;5036980;28;20230;-54
2022/06/21 07:43:49;;;;;;;2.20;1.43;;;18.40;99.90;;;;;;5045975;28;20345;-55
2022/06/21 07:46:28;;;;;;;3.20;1.80;;;18.70;99.90;;;;;;5044674;28;20219;-55
2022/06/21 07:49:02;;;;;;;3.53;1.60;;;18.60;99.90;;;;;;5026075;28;20336;-54
2022/06/21 07:51:35;;;;;;;3.67;1.43;;;18.70;99.90;;;;;;5038405;28;21786;-54
2022/06/21 07:54:27;;;;;;;3.43;1.73;;;19.00;99.90;;;;;;5050366;28;20222;-54
2022/06/21 07:56:59;;;;;;;6.00;2.00;;;19.00;99.90;;;;;;5036823;28;20326;-55
2022/06/21 07:59:36;;;;;;;5.60;2.07;;;19.00;99.90;;;;;;5035968;28;20213;-54
2022/06/21 08:07:46;;;;;;;2.87;1.50;;;19.10;99.90;;;;;;5040610;28;20196;-63
2022/06/21 08:10:16;;;;;;;3.80;2.10;;;19.60;99.90;;;;;;5043350;28;20279;-54
2022/06/21 08:12:47;;;;;;;5.30;1.90;;;19.40;99.90;;;;;;5036964;28;20208;-54
2022/06/21 08:15:15;;;;;;;3.30;1.87;;;19.60;99.90;;;;;;5042916;28;20208;-52
2022/06/21 08:17:57;;;;;;;4.43;1.87;;;19.40;99.90;;;;;;5041677;28;20203;-55
2022/06/21 08:20:31;;;;;;;3.30;1.57;;;19.50;99.90;;;;;;5041613;28;20208;-55
2022/06/21 08:23:05;;;;;;;4.33;2.07;;;19.80;99.90;;;;;;5040780;28;20215;-54
2022/06/21 08:25:50;;;;;;;6.97;2.37;;;19.60;99.90;;;;;;5036332;28;20649;-55
2022/06/21 08:28:33;;;;;;;4.97;1.83;;;19.20;99.90;;;;;;5041447;28;21651;-55
2022/06/21 08:31:08;;;;;;;3.77;1.97;;;19.90;99.90;;;;;;5051473;28;20276;-56
2022/06/21 08:33:54;;;;;;;6.23;2.10;;;19.90;99.90;;;;;;5034050;28;20266;-53
2022/06/21 08:36:35;;;;;;;2.90;1.90;;;19.80;99.90;;;;;;5055651;28;20207;-55
2022/06/21 08:39:28;;;;;;;4.93;1.97;;;20.10;99.90;;;;;;5050702;28;20215;-55
2022/06/21 08:42:16;;;;;;;3.50;1.80;;;20.20;99.90;;;;;;5052625;28;20204;-55
2022/06/21 08:48:18;;;;;;;4.87;2.03;;;20.40;99.90;;;;;;5044480;28;20505;-55
2022/06/21 08:51:13;;;;;;;4.00;2.10;;;20.30;99.90;;;;;;5048274;28;20299;-54
2022/06/21 08:53:46;;;;;;;3.67;2.27;;;20.30;99.90;;;;;;5044317;28;20328;-54
2022/06/21 08:56:41;;;;;;;4.70;2.00;;;20.20;99.90;;;;;;5044818;28;20258;-55
2022/06/21 08:59:17;;;;;;;55.53;9.97;;;20.40;99.90;;;;;;5045396;28;20701;-54
2022/06/21 09:02:00;;;;;;;4.77;2.17;;;20.70;99.90;;;;;;5049450;28;20215;-55
2022/06/21 09:04:27;;;;;;;4.50;2.60;;;20.60;99.90;;;;;;5045766;28;20200;-55
2022/06/21 09:06:54;;;;;;;3.80;2.27;;;20.40;88.90;;;;;;5034376;28;20258;-54
2022/06/21 09:09:46;;;;;;;4.57;2.50;;;20.40;99.20;;;;;;5042282;28;20206;-54
2022/06/21 09:12:26;;;;;;;7.70;2.60;;;20.80;99.90;;;;;;5046773;28;20209;-56
2022/06/21 09:15:30;;;;;;;4.73;2.10;;;20.70;91.10;;;;;;5051180;28;20219;-54
2022/06/21 09:18:26;;;;;;;2.67;2.00;;;21.00;96.50;;;;;;5056294;28;20247;-55
2022/06/21 09:21:03;;;;;;;2.63;1.83;;;21.10;98.90;;;;;;5040368;28;20211;-54
2022/06/21 09:23:50;;;;;;;4.50;1.83;;;21.10;99.90;;;;;;5056152;28;20683;-54
2022/06/21 09:26:29;;;;;;;4.90;2.50;;;21.40;92.70;;;;;;5051782;28;20245;-54
2022/06/21 09:29:18;;;;;;;5.87;2.57;;;21.50;74.00;;;;;;5050993;28;20246;-54
2022/06/21 09:31:48;;;;;;;9.57;2.40;;;21.50;77.70;;;;;;5045526;28;20276;-55
2022/06/21 09:34:22;;;;;;;5.10;2.80;;;21.30;71.90;;;;;;5050351;28;20224;-55
2022/06/21 09:37:08;;;;;;;4.27;2.70;;;20.70;99.90;;;;;;5049330;28;20300;-54
2022/06/21 09:39:46;;;;;;;5.83;2.63;;;20.70;90.80;;;;;;5045527;28;20664;-54
2022/06/21 09:42:38;;;;;;;3.57;2.30;;;20.70;71.30;;;;;;5034624;28;20635;-54
2022/06/21 09:45:31;;;;;;;2.90;2.50;;;20.10;99.90;;;;;;5046888;28;20659;-57
2022/06/21 09:48:16;;;;;;;4.83;2.27;;;20.80;84.80;;;;;;5050070;28;20311;-56
2022/06/21 09:50:46;;;;;;;3.63;2.20;;;21.20;42.80;;;;;;5048114;28;20270;-55
2022/06/21 09:53:42;;;;;;;4.00;2.37;;;21.40;49.60;;;;;;5052461;28;20290;-55
2022/06/21 09:56:18;;;;;;;6.07;2.53;;;21.50;30.20;;;;;;5043993;28;20258;-56
2022/06/21 09:58:51;;;;;;;3.77;2.60;;;21.40;79.80;;;;;;5046591;28;20589;-54
2022/06/21 10:01:23;;;;;;;5.17;2.40;;;21.10;97.20;;;;;;5044297;28;20220;-54
2022/06/21 10:04:23;;;;;;;3.27;2.57;;;21.40;91.50;;;;;;5034995;28;20228;-56
2022/06/21 10:06:59;;;;;;;3.03;2.20;;;21.60;70.40;;;;;;5037010;28;20604;-54
2022/06/21 10:09:26;;;;;;;6.27;2.10;;;21.60;39.20;;;;;;5044037;28;20288;-56
2022/06/21 10:12:11;;;;;;;3.80;2.13;;;21.20;42.40;;;;;;5045105;28;20215;-56
2022/06/21 10:15:02;;;;;;;3.73;2.40;;;21.30;62.90;;;;;;5049384;28;20226;-57
2022/06/21 10:17:32;;;;;;;4.83;1.90;;;21.30;50.90;;;;;;5031923;28;20200;-55
2022/06/21 10:20:24;;;;;;;4.10;2.37;;;21.20;78.30;;;;;;5046254;28;21326;-54
2022/06/21 10:22:54;;;;;;;4.80;2.37;;;21.30;50.90;;;;;;5046385;28;20200;-55
2022/06/21 10:25:42;;;;;;;4.00;2.20;;;21.40;48.60;;;;;;5052097;28;20519;-56
2022/06/21 10:28:21;;;;;;;3.17;2.10;;;21.30;90.40;;;;;;5051959;28;20208;-55
2022/06/21 10:30:48;;;;;;;2.73;1.83;;;21.40;76.90;;;;;;5045917;28;20203;-57
2022/06/21 10:33:40;;;;;;;3.83;2.10;;;21.40;56.50;;;;;;5045935;28;20272;-54
2022/06/21 10:36:12;;;;;;;2.70;2.00;;;21.40;30.50;;;;;;5052153;28;20220;-54
2022/06/21 10:38:42;;;;;;;3.67;1.77;;;21.60;74.10;;;;;;5048873;28;20655;-55
2022/06/21 10:41:35;;;;;;;3.10;1.60;;;21.70;51.80;;;;;;5043354;28;20299;-54
2022/06/21 10:44:22;;;;;;;4.60;1.47;;;21.60;45.80;;;;;;5046367;28;20569;-56
2022/06/21 10:46:58;;;;;;;2.87;1.60;;;22.40;43.00;;;;;;5051251;28;20208;-54
2022/06/21 10:50:06;;;;;;;3.87;1.60;;;22.40;28.00;;;;;;5040191;28;20349;-54
2022/06/21 10:53:03;;;;;;;3.20;2.07;;;22.00;16.00;;;;;;5049926;28;20259;-54
2022/06/21 10:55:47;;;;;;;2.17;1.90;;;21.80;18.10;;;;;;5048394;28;20216;-54
2022/06/21 10:58:56;;;;;;;3.27;1.40;;;21.90;24.40;;;;;;5052454;28;20495;-56
2022/06/21 11:01:44;;;;;;;3.67;1.50;;;21.60;58.30;;;;;;4956496;28;20238;-54
2022/06/21 11:04:29;;;;;;;2.97;1.67;;;21.70;43.30;;;;;;4940145;28;20211;-55
2022/06/21 11:06:59;;;;;;;2.77;1.37;;;21.60;92.20;;;;;;5027609;28;20219;-53
2022/06/21 11:09:51;;;;;;;1.57;1.20;;;22.20;95.30;;;;;;5050342;28;20215;-54
2022/06/21 11:15:36;;;;;;;3.90;1.70;;;21.20;32.10;;;;;;5052463;28;20257;-54
2022/06/21 11:18:25;;;;;;;2.07;1.80;;;21.40;48.30;;;;;;5053927;28;20194;-54
2022/06/21 11:21:11;;;;;;;2.47;1.73;;;21.40;37.10;;;;;;5052551;28;20277;-54
2022/06/21 11:24:11;;;;;;;2.33;1.50;;;21.60;31.30;;;;;;5051655;28;20648;-54
2022/06/21 11:26:41;;;;;;;3.40;2.07;;;21.70;49.10;;;;;;5050289;28;20611;-55
2022/06/21 11:29:19;;;;;;;4.87;1.90;;;21.80;29.20;;;;;;5050388;28;20655;-54
2022/06/21 11:31:55;;;;;;;6.77;2.50;;;22.00;39.40;;;;;;5044099;28;20200;-55
2022/06/21 11:34:54;;;;;;;4.03;2.13;;;21.50;39.20;;;;;;5044364;28;20691;-55
2022/06/21 11:37:58;;;;;;;2.40;1.93;;;21.20;89.20;;;;;;5036845;28;20208;-54
2022/06/21 11:40:30;;;;;;;4.40;1.93;;;21.30;96.00;;;;;;5034037;28;20250;-54
2022/06/21 11:42:58;;;;;;;4.70;1.80;;;21.50;78.40;;;;;;5033418;28;20246;-54
2022/06/21 11:45:48;;;;;;;4.93;1.87;;;21.20;62.70;;;;;;5040624;28;20203;-55
2022/06/21 11:48:39;;;;;;;3.60;2.00;;;21.30;40.90;;;;;;5038247;28;20230;-54
2022/06/21 11:51:10;;;;;;;2.63;1.60;;;21.20;50.20;;;;;;5036938;28;20204;-54
2022/06/21 11:53:48;;;;;;;3.53;1.67;;;21.40;53.90;;;;;;5035878;28;20286;-54
2022/06/21 11:56:30;;;;;;;3.63;2.07;;;21.20;81.00;;;;;;5038780;28;21322;-54
2022/06/21 11:59:06;;;;;;;3.63;2.20;;;21.30;84.40;;;;;;5043539;28;20199;-54
2022/06/21 12:02:00;;;;;;;4.20;1.80;;;20.90;68.80;;;;;;5035360;28;20229;-55
2022/06/21 12:04:48;;;;;;;3.53;1.70;;;21.30;64.90;;;;;;5039584;28;20719;-56
2022/06/21 12:07:40;;;;;;;2.60;1.67;;;21.40;21.30;;;;;;5036542;28;20815;-54
2022/06/21 12:10:27;;;;;;;5.27;1.70;;;21.10;24.30;;;;;;5045569;28;20212;-54
2022/06/21 12:13:04;;;;;;;3.20;1.50;;;21.10;21.10;;;;;;5040497;28;20225;-54
2022/06/21 12:15:44;;;;;;;6.00;1.90;;;21.50;21.00;;;;;;5039158;28;20669;-53
2022/06/21 12:18:16;;;;;;;1.77;1.20;;;21.50;16.40;;;;;;5045216;28;20587;-54
2022/06/21 12:20:52;;;;;;;6.90;1.60;;;21.80;17.30;;;;;;5044162;28;20292;-54
2022/06/21 12:23:44;;;;;;;3.80;2.07;;;21.70;13.10;;;;;;5040992;28;20480;-53
2022/06/21 12:26:14;;;;;;;3.00;1.40;;;21.20;40.40;;;;;;5036097;28;20624;-55
2022/06/21 12:28:42;;;;;;;2.60;1.93;;;21.00;60.60;;;;;;5037348;28;20297;-55
2022/06/21 12:31:22;;;;;;;2.70;1.80;;;20.90;52.70;;;;;;5036098;28;20234;-54
2022/06/21 12:33:57;;;;;;;3.33;1.60;;;20.90;91.30;;;;;;5042989;28;20256;-54
2022/06/21 12:36:32;;;;;;;2.77;1.40;;;21.20;74.30;;;;;;5040184;28;20240;-54
2022/06/21 12:39:05;;;;;;;3.10;1.20;;;21.70;40.80;;;;;;5040628;28;20227;-55
2022/06/21 12:41:42;;;;;;;2.63;1.30;;;22.90;37.20;;;;;;5042657;28;20205;-54
2022/06/21 12:44:40;;;;;;;3.30;1.60;;;23.40;20.10;;;;;;5042295;28;20207;-54
2022/06/21 12:47:27;;;;;;;2.73;1.80;;;23.50;14.00;;;;;;5040390;28;20218;-55
2022/06/21 12:50:15;;;;;;;3.73;1.80;;;23.40;16.30;;;;;;5040076;28;20904;-55
2022/06/21 12:52:54;;;;;;;3.37;1.63;;;23.30;1.00;;;;;;5037773;28;20204;-55
2022/06/21 12:55:30;;;;;;;3.93;1.80;;;22.50;1.00;;;;;;5038611;28;20223;-53
2022/06/21 12:58:06;;;;;;;3.77;2.07;;;22.50;6.80;;;;;;5030046;28;20205;-55
2022/06/21 13:01:02;;;;;;;4.47;1.80;;;22.00;1.00;;;;;;5039971;28;20195;-54
2022/06/21 13:03:35;;;;;;;3.33;1.70;;;22.00;1.00;;;;;;5044213;28;21469;-55
2022/06/21 13:06:21;;;;;;;2.23;1.57;;;22.50;5.10;;;;;;5040538;28;20815;-55
2022/06/21 13:08:56;;;;;;;4.00;1.80;;;22.40;15.50;;;;;;5030660;28;20212;-55
2022/06/21 13:11:54;;;;;;;3.73;1.73;;;22.10;19.70;;;;;;5039972;28;20762;-52
2022/06/21 13:14:52;;;;;;;3.10;1.60;;;21.80;8.00;;;;;;5037071;28;20254;-55
2022/06/21 13:18:03;;;;;;;3.90;1.83;;;21.80;22.30;;;;;;5035382;28;20720;-53
2022/06/21 13:20:44;;;;;;;5.07;2.00;;;21.60;13.20;;;;;;5048759;28;20721;-55
2022/06/21 13:23:39;;;;;;;4.17;2.33;;;21.80;14.90;;;;;;5053090;28;20571;-54
2022/06/21 13:26:17;;;;;;;5.37;2.20;;;21.70;19.30;;;;;;5047956;28;20567;-55
2022/06/21 13:29:22;;;;;;;5.23;2.90;;;21.60;31.90;;;;;;5033124;28;20667;-55
2022/06/21 13:32:01;;;;;;;3.33;2.23;;;21.20;23.90;;;;;;5044298;28;20258;-54
2022/06/21 13:34:46;;;;;;;4.10;2.30;;;21.40;28.50;;;;;;5034359;28;20571;-53
2022/06/21 13:37:52;;;;;;;4.07;2.47;;;21.30;29.20;;;;;;5047804;28;20722;-54
2022/06/21 13:40:58;;;;;;;6.10;1.97;;;21.40;37.40;;;;;;4996667;28;20338;-55
2022/06/21 13:43:46;;;;;;;5.20;2.30;;;21.40;87.00;;;;;;5033172;28;20740;-56
2022/06/21 13:46:24;;;;;;;3.27;1.97;;;21.30;60.20;;;;;;5046418;28;20204;-55
2022/06/21 13:49:12;;;;;;;4.47;1.50;;;21.10;57.10;;;;;;5041913;28;20963;-54
2022/06/21 13:51:47;;;;;;;6.80;1.80;;;21.20;72.10;;;;;;5046775;28;20298;-55
2022/06/21 13:54:24;;;;;;;4.37;2.00;;;21.20;25.80;;;;;;5043682;28;20208;-54
2022/06/21 13:57:24;;;;;;;3.60;2.03;;;21.10;27.20;;;;;;5043834;28;20239;-55
2022/06/21 13:59:54;;;;;;;4.40;1.73;;;21.00;30.00;;;;;;5004380;28;20339;-55
2022/06/21 14:02:49;;;;;;;3.33;1.93;;;21.20;22.40;;;;;;5046876;28;20733;-55
2022/06/21 14:05:23;;;;;;;2.63;1.30;;;21.20;11.30;;;;;;5047785;28;20202;-55